createdAt,value
2017-08-05T00:00:06.585Z,17.10
2017-08-05T00:02:34.140Z,17.10
2017-08-05T00:05:01.637Z,17.10
2017-08-05T00:07:29.134Z,17.00
2017-08-05T00:09:56.990Z,16.90
2017-08-05T00:12:25.007Z,16.90
2017-08-05T00:14:52.555Z,16.90
2017-08-05T00:17:20.348Z,16.90
2017-08-05T00:19:47.863Z,16.90
2017-08-05T00:22:15.131Z,16.90
2017-08-05T00:24:42.734Z,16.90
2017-08-05T00:27:10.259Z,16.80
2017-08-05T00:29:37.765Z,16.70
2017-08-05T00:32:05.667Z,16.70
2017-08-05T00:34:33.162Z,16.70
2017-08-05T00:37:00.671Z,16.70
2017-08-05T00:39:28.220Z,16.70
2017-08-05T00:41:55.896Z,16.70
2017-08-05T00:44:23.398Z,16.70
2017-08-05T00:46:51.242Z,16.60
2017-08-05T00:49:18.743Z,16.70
2017-08-05T00:51:46.259Z,16.60
2017-08-05T00:54:13.833Z,16.60
2017-08-05T00:56:41.703Z,16.60
2017-08-05T00:59:09.279Z,16.50
2017-08-05T01:01:36.843Z,16.40
2017-08-05T01:04:04.363Z,16.50
2017-08-05T01:06:31.865Z,16.50
2017-08-05T01:08:59.743Z,16.40
2017-08-05T01:11:27.244Z,16.30
2017-08-05T01:13:54.886Z,16.40
2017-08-05T01:16:22.419Z,16.50
2017-08-05T01:18:50.011Z,16.50
2017-08-05T01:21:17.590Z,16.60
2017-08-05T01:23:45.143Z,16.60
2017-08-05T01:26:12.639Z,16.60
2017-08-05T01:28:40.159Z,16.40
2017-08-05T01:31:07.724Z,16.40
2017-08-05T01:33:35.228Z,16.30
2017-08-05T01:36:02.742Z,16.00
2017-08-05T01:38:30.274Z,16.00
2017-08-05T01:40:57.775Z,16.00
2017-08-05T01:43:25.271Z,15.90
2017-08-05T01:45:52.826Z,15.70
2017-08-05T01:48:20.384Z,15.70
2017-08-05T01:50:47.926Z,15.70
2017-08-05T01:53:15.782Z,15.60
2017-08-05T01:55:43.299Z,15.60
2017-08-05T01:58:10.802Z,15.60
2017-08-05T02:00:38.355Z,15.50
2017-08-05T02:03:05.859Z,15.50
2017-08-05T02:05:33.568Z,15.60
2017-08-05T02:08:01.405Z,15.70
2017-08-05T02:10:28.907Z,15.70
2017-08-05T02:12:56.418Z,15.60
2017-08-05T02:15:23.915Z,15.50
2017-08-05T02:17:51.346Z,15.40
2017-08-05T02:20:19.053Z,15.50
2017-08-05T02:22:46.616Z,15.70
2017-08-05T02:25:14.111Z,15.70
2017-08-05T02:27:41.698Z,15.70
2017-08-05T02:30:09.809Z,15.70
2017-08-05T02:32:37.416Z,15.80
2017-08-05T02:35:05.201Z,15.80
2017-08-05T02:37:33.095Z,15.80
2017-08-05T02:40:00.594Z,15.70
2017-08-05T02:42:28.111Z,15.70
2017-08-05T02:44:55.863Z,15.70
2017-08-05T02:47:23.371Z,15.60
2017-08-05T02:49:51.001Z,15.60
2017-08-05T02:52:19.058Z,15.70
2017-08-05T02:54:46.583Z,15.70
2017-08-05T02:57:14.171Z,15.70
2017-08-05T02:59:41.711Z,15.50
2017-08-05T03:02:09.255Z,15.50
2017-08-05T03:04:36.863Z,15.50
2017-08-05T03:07:04.483Z,15.60
2017-08-05T03:09:32.111Z,15.60
2017-08-05T03:11:59.611Z,15.60
2017-08-05T03:14:27.187Z,15.60
2017-08-05T03:16:54.652Z,15.60
2017-08-05T03:19:22.157Z,15.50
2017-08-05T03:21:49.698Z,15.40
2017-08-05T03:24:17.206Z,15.40
2017-08-05T03:26:44.703Z,15.30
2017-08-05T03:29:12.737Z,15.30
2017-08-05T03:31:40.351Z,15.40
2017-08-05T03:34:07.873Z,15.40
2017-08-05T03:36:35.835Z,15.30
2017-08-05T03:39:03.442Z,15.30
2017-08-05T03:41:30.948Z,15.30
2017-08-05T03:43:58.490Z,15.30
2017-08-05T03:46:25.982Z,15.10
2017-08-05T03:48:53.479Z,15.10
2017-08-05T03:51:21.015Z,15.20
2017-08-05T03:53:48.618Z,15.20
2017-08-05T03:56:16.759Z,15.20
2017-08-05T03:58:44.451Z,15.20
2017-08-05T04:01:11.963Z,15.20
2017-08-05T04:03:39.458Z,15.30
2017-08-05T04:06:07.096Z,15.40
2017-08-05T04:08:34.587Z,15.30
2017-08-05T04:11:02.079Z,15.30
2017-08-05T04:13:29.979Z,15.20
2017-08-05T04:15:57.562Z,15.30
2017-08-05T04:18:24.850Z,15.10
2017-08-05T04:20:52.658Z,15.50
2017-08-05T04:23:20.278Z,15.60
2017-08-05T04:25:47.773Z,15.80
2017-08-05T04:28:15.335Z,15.90
2017-08-05T04:30:42.903Z,16.00
2017-08-05T04:33:10.422Z,16.20
2017-08-05T04:35:38.409Z,16.00
2017-08-05T04:38:05.931Z,16.40
2017-08-05T04:40:33.422Z,16.30
2017-08-05T04:43:01.432Z,16.20
2017-08-05T04:45:29.074Z,16.00
2017-08-05T04:47:56.734Z,16.00
2017-08-05T04:50:24.321Z,16.10
2017-08-05T04:52:52.226Z,16.40
2017-08-05T04:55:19.732Z,16.90
2017-08-05T04:57:47.291Z,17.20
2017-08-05T05:00:14.835Z,17.40
2017-08-05T05:02:42.358Z,17.70
2017-08-05T05:05:09.975Z,18.00
2017-08-05T05:07:37.604Z,18.10
2017-08-05T05:10:05.103Z,18.20
2017-08-05T05:12:32.677Z,18.30
2017-08-05T05:15:00.567Z,18.40
2017-08-05T05:17:28.062Z,18.50
2017-08-05T05:19:55.948Z,18.70
2017-08-05T05:22:23.452Z,19.30
2017-08-05T05:24:51.019Z,20.20
2017-08-05T05:27:18.931Z,21.10
2017-08-05T05:29:46.439Z,21.80
2017-08-05T05:32:13.948Z,22.90
2017-08-05T05:34:41.499Z,23.80
2017-08-05T05:37:08.996Z,25.00
2017-08-05T05:39:36.498Z,25.60
2017-08-05T05:42:04.064Z,25.50
2017-08-05T05:44:31.571Z,25.70
2017-08-05T05:46:59.070Z,25.10
2017-08-05T05:49:26.612Z,24.90
2017-08-05T05:51:54.110Z,24.30
2017-08-05T05:54:21.599Z,23.90
2017-08-05T05:56:49.275Z,23.60
2017-08-05T05:59:16.774Z,23.70
2017-08-05T06:01:44.281Z,23.30
2017-08-05T06:04:12.196Z,23.30
2017-08-05T06:06:39.696Z,23.20
2017-08-05T06:09:07.227Z,23.30
2017-08-05T06:11:34.785Z,24.50
2017-08-05T06:14:02.334Z,25.60
2017-08-05T06:16:30.007Z,26.10
2017-08-05T06:18:57.622Z,26.20
2017-08-05T06:21:25.154Z,25.90
2017-08-05T06:23:52.755Z,25.90
2017-08-05T06:26:20.808Z,25.60
2017-08-05T06:28:48.306Z,25.80
2017-08-05T06:31:15.815Z,26.00
2017-08-05T06:33:43.727Z,26.40
2017-08-05T06:36:11.231Z,26.60
2017-08-05T06:38:38.728Z,26.40
2017-08-05T06:41:06.579Z,26.10
2017-08-05T06:43:34.403Z,26.00
2017-08-05T06:46:01.903Z,26.00
2017-08-05T06:48:29.530Z,26.60
2017-08-05T06:50:57.238Z,26.70
2017-08-05T06:53:25.019Z,26.60
2017-08-05T06:55:52.876Z,26.80
2017-08-05T06:58:20.388Z,26.60
2017-08-05T07:00:48.155Z,26.30
2017-08-05T07:03:15.711Z,26.40
2017-08-05T07:05:43.223Z,26.60
2017-08-05T07:08:10.736Z,26.10
2017-08-05T07:10:38.358Z,26.50
2017-08-05T07:13:05.931Z,27.00
2017-08-05T07:15:33.451Z,27.20
2017-08-05T07:18:01.044Z,28.20
2017-08-05T07:20:28.556Z,29.40
2017-08-05T07:22:56.158Z,30.40
2017-08-05T07:25:23.766Z,30.90
2017-08-05T07:27:51.366Z,29.80
2017-08-05T07:30:18.942Z,28.50
2017-08-05T07:32:46.531Z,28.60
2017-08-05T07:35:14.064Z,28.30
2017-08-05T07:37:41.987Z,28.10
2017-08-05T07:40:09.607Z,28.60
2017-08-05T07:42:37.679Z,29.40
2017-08-05T07:45:05.319Z,30.20
2017-08-05T07:47:33.111Z,31.60
2017-08-05T07:50:00.623Z,31.60
2017-08-05T07:52:28.212Z,30.00
2017-08-05T07:54:56.025Z,30.60
2017-08-05T07:57:23.765Z,30.20
2017-08-05T07:59:51.272Z,30.70
2017-08-05T08:02:18.820Z,31.50
2017-08-05T08:04:46.426Z,32.00
2017-08-05T08:07:14.637Z,31.40
2017-08-05T08:09:42.332Z,31.70
2017-08-05T08:12:10.506Z,31.60
2017-08-05T08:14:38.745Z,30.90
2017-08-05T08:17:07.003Z,31.30
2017-08-05T08:19:34.510Z,32.00
2017-08-05T08:22:02.018Z,30.80
2017-08-05T08:24:29.562Z,31.00
2017-08-05T08:26:57.076Z,31.00
2017-08-05T08:29:24.623Z,31.80
2017-08-05T08:31:52.434Z,31.70
2017-08-05T08:34:19.944Z,33.30
2017-08-05T08:36:47.551Z,34.70
2017-08-05T08:39:15.578Z,35.40
2017-08-05T08:41:43.131Z,36.10
2017-08-05T08:44:10.668Z,35.60
2017-08-05T08:46:38.941Z,35.80
2017-08-05T08:49:06.435Z,35.50
2017-08-05T08:51:33.939Z,35.50
2017-08-05T08:54:01.470Z,35.70
2017-08-05T08:56:28.974Z,35.50
2017-08-05T08:58:56.488Z,35.20
2017-08-05T09:01:24.371Z,34.40
2017-08-05T09:03:51.959Z,34.20
2017-08-05T09:06:19.494Z,34.30
2017-08-05T09:08:47.387Z,33.60
2017-08-05T09:11:14.890Z,32.90
2017-08-05T09:13:42.486Z,33.40
2017-08-05T09:16:10.276Z,33.50
2017-08-05T09:18:37.771Z,33.60
2017-08-05T09:21:05.269Z,34.00
2017-08-05T09:23:32.874Z,34.60
2017-08-05T09:26:00.374Z,35.80
2017-08-05T09:28:27.886Z,35.10
2017-08-05T09:30:55.431Z,34.50
2017-08-05T09:33:22.926Z,34.10
2017-08-05T09:35:50.567Z,34.00
2017-08-05T09:38:18.087Z,32.70
2017-08-05T09:40:45.595Z,31.90
2017-08-05T09:43:13.151Z,32.30
2017-08-05T09:45:40.651Z,32.80
2017-08-05T09:48:08.147Z,33.30
2017-08-05T09:50:35.730Z,33.60
2017-08-05T09:53:03.243Z,33.70
2017-08-05T09:55:30.749Z,33.50
2017-08-05T09:57:58.602Z,32.10
2017-08-05T10:00:26.159Z,32.60
2017-08-05T10:02:53.671Z,31.80
2017-08-05T10:05:21.223Z,32.50
2017-08-05T10:07:49.480Z,33.20
2017-08-05T10:10:17.025Z,33.80
2017-08-05T10:12:44.895Z,33.30
2017-08-05T10:15:12.402Z,33.70
2017-08-05T10:17:39.926Z,34.40
2017-08-05T10:20:07.470Z,35.20
2017-08-05T10:22:35.012Z,34.80
2017-08-05T10:25:02.515Z,34.90
2017-08-05T10:27:30.491Z,35.50
2017-08-05T10:29:57.986Z,35.60
2017-08-05T10:32:25.483Z,35.10
2017-08-05T10:34:53.262Z,34.10
2017-08-05T10:37:20.772Z,32.60
2017-08-05T10:39:48.275Z,32.60
2017-08-05T10:42:16.219Z,32.70
2017-08-05T10:44:44.231Z,33.40
2017-08-05T10:47:11.796Z,34.40
2017-08-05T10:49:40.032Z,34.70
2017-08-05T10:52:07.585Z,33.10
2017-08-05T10:54:35.092Z,32.30
2017-08-05T10:57:02.894Z,32.10
2017-08-05T10:59:30.411Z,32.20
2017-08-05T11:01:57.919Z,31.60
2017-08-05T11:04:25.824Z,30.80
2017-08-05T11:06:53.460Z,30.40
2017-08-05T11:09:21.000Z,30.00
2017-08-05T11:11:48.538Z,30.80
2017-08-05T11:14:16.036Z,31.50
2017-08-05T11:16:43.534Z,31.60
2017-08-05T11:19:11.914Z,31.80
2017-08-05T11:21:39.423Z,31.80
2017-08-05T11:24:06.947Z,31.50
2017-08-05T11:26:34.922Z,31.60
2017-08-05T11:29:02.434Z,31.70
2017-08-05T11:31:29.947Z,31.30
2017-08-05T11:33:58.491Z,32.00
2017-08-05T11:36:26.762Z,33.20
2017-08-05T11:38:55.337Z,33.90
2017-08-05T11:41:22.972Z,33.90
2017-08-05T11:43:50.682Z,34.30
2017-08-05T11:46:18.186Z,34.20
2017-08-05T11:48:46.020Z,33.20
2017-08-05T11:51:13.516Z,32.40
2017-08-05T11:53:41.059Z,31.80
2017-08-05T11:56:08.847Z,31.80
2017-08-05T11:58:36.372Z,31.30
2017-08-05T12:01:03.882Z,31.30
2017-08-05T12:03:31.545Z,31.40
2017-08-05T12:05:59.047Z,31.60
2017-08-05T12:08:26.583Z,31.60
2017-08-05T12:10:54.394Z,31.70
2017-08-05T12:13:22.057Z,32.90
2017-08-05T12:15:50.107Z,34.40
2017-08-05T12:18:17.650Z,35.70
2017-08-05T12:20:48.912Z,36.20
2017-08-05T12:23:16.423Z,35.80
2017-08-05T12:25:43.990Z,36.90
2017-08-05T12:28:11.583Z,36.90
2017-08-05T12:30:39.103Z,36.00
2017-08-05T12:33:06.647Z,36.80
2017-08-05T12:35:34.231Z,36.70
2017-08-05T12:38:01.747Z,37.10
2017-08-05T12:40:29.811Z,36.90
2017-08-05T12:42:57.402Z,36.20
2017-08-05T12:45:25.059Z,35.10
2017-08-05T12:47:52.844Z,34.40
2017-08-05T12:50:20.343Z,33.80
2017-08-05T12:52:47.875Z,34.00
2017-08-05T12:55:15.519Z,34.20
2017-08-05T12:57:43.027Z,34.50
2017-08-05T13:00:10.559Z,33.80
2017-08-05T13:02:38.725Z,33.10
2017-08-05T13:05:06.399Z,32.50
2017-08-05T13:07:34.230Z,32.70
2017-08-05T13:10:01.784Z,32.20
2017-08-05T13:12:29.346Z,32.00
2017-08-05T13:14:56.846Z,31.70
2017-08-05T13:17:24.399Z,31.70
2017-08-05T13:19:51.907Z,31.40
2017-08-05T13:22:19.415Z,31.20
2017-08-05T13:24:46.979Z,31.10
2017-08-05T13:27:14.520Z,30.70
2017-08-05T13:29:42.047Z,29.60
2017-08-05T13:32:09.601Z,29.10
2017-08-05T13:34:37.136Z,28.50
2017-08-05T13:37:04.748Z,27.90
2017-08-05T13:39:32.626Z,27.40
2017-08-05T13:42:00.146Z,26.90
2017-08-05T13:44:27.643Z,26.00
2017-08-05T13:46:55.246Z,25.40
2017-08-05T13:49:22.866Z,25.10
2017-08-05T13:51:50.363Z,24.70
2017-08-05T13:54:18.217Z,24.60
2017-08-05T13:56:45.723Z,24.40
2017-08-05T13:59:13.236Z,24.00
2017-08-05T14:01:40.795Z,23.60
2017-08-05T14:04:08.344Z,23.40
2017-08-05T14:06:36.207Z,23.20
2017-08-05T14:09:03.790Z,23.30
2017-08-05T14:11:31.286Z,23.50
2017-08-05T14:13:58.805Z,23.60
2017-08-05T14:16:26.335Z,24.20
2017-08-05T14:18:53.846Z,25.30
2017-08-05T14:21:21.494Z,25.90
2017-08-05T14:23:49.013Z,25.90
2017-08-05T14:26:16.520Z,26.20
2017-08-05T14:28:44.074Z,26.80
2017-08-05T14:31:11.579Z,27.20
2017-08-05T14:33:39.168Z,27.60
2017-08-05T14:36:07.063Z,26.70
2017-08-05T14:38:34.558Z,27.20
2017-08-05T14:41:02.055Z,27.30
2017-08-05T14:43:29.610Z,28.40
2017-08-05T14:45:57.105Z,29.20
2017-08-05T14:48:24.608Z,30.40
2017-08-05T14:50:52.207Z,31.10
2017-08-05T14:53:19.715Z,31.30
2017-08-05T14:55:47.221Z,32.10
2017-08-05T14:58:14.959Z,31.20
2017-08-05T15:00:42.631Z,31.30
2017-08-05T15:03:10.136Z,30.60
2017-08-05T15:05:37.731Z,30.90
2017-08-05T15:08:05.256Z,32.10
2017-08-05T15:10:32.758Z,30.60
2017-08-05T15:13:00.648Z,30.80
2017-08-05T15:15:28.156Z,30.50
2017-08-05T15:17:55.658Z,30.00
2017-08-05T15:20:23.199Z,29.90
2017-08-05T15:22:50.770Z,29.40
2017-08-05T15:25:18.299Z,29.80
2017-08-05T15:27:45.821Z,29.90
2017-08-05T15:30:13.329Z,29.70
2017-08-05T15:32:41.067Z,29.60
2017-08-05T15:35:08.592Z,29.60
2017-08-05T15:37:36.100Z,29.80
2017-08-05T15:40:03.651Z,29.00
2017-08-05T15:42:31.313Z,28.90
2017-08-05T15:44:58.824Z,28.80
2017-08-05T15:47:26.378Z,28.90
2017-08-05T15:49:53.896Z,29.40
2017-08-05T15:52:21.538Z,29.80
2017-08-05T15:54:49.395Z,30.20
2017-08-05T15:57:16.905Z,29.50
2017-08-05T15:59:44.398Z,29.40
2017-08-05T16:02:12.199Z,28.70
2017-08-05T16:04:39.747Z,28.20
2017-08-05T16:07:07.284Z,28.00
2017-08-05T16:09:34.998Z,27.90
2017-08-05T16:12:02.503Z,27.50
2017-08-05T16:14:30.030Z,27.70
2017-08-05T16:16:57.578Z,27.60
2017-08-05T16:19:25.122Z,27.30
2017-08-05T16:21:52.639Z,26.90
2017-08-05T16:24:20.224Z,26.60
2017-08-05T16:26:47.748Z,26.50
2017-08-05T16:29:15.268Z,26.20
2017-08-05T16:31:42.875Z,26.40
2017-08-05T16:34:10.379Z,26.70
2017-08-05T16:36:37.887Z,26.80
2017-08-05T16:39:05.667Z,26.70
2017-08-05T16:41:33.397Z,26.30
2017-08-05T16:44:01.069Z,25.80
2017-08-05T16:46:28.651Z,25.50
2017-08-05T16:48:56.194Z,25.00
2017-08-05T16:51:23.745Z,24.90
2017-08-05T16:53:51.526Z,24.80
2017-08-05T16:56:19.070Z,24.70
2017-08-05T16:58:46.615Z,24.60
2017-08-05T17:01:14.168Z,24.70
2017-08-05T17:03:41.669Z,24.70
2017-08-05T17:06:09.291Z,24.70
2017-08-05T17:08:36.855Z,24.60
2017-08-05T17:11:04.370Z,24.70
2017-08-05T17:13:31.880Z,24.50
2017-08-05T17:15:59.426Z,24.50
2017-08-05T17:18:26.932Z,24.40
2017-08-05T17:20:54.462Z,24.50
2017-08-05T17:23:22.011Z,24.50
2017-08-05T17:25:49.511Z,24.40
2017-08-05T17:28:17.012Z,24.30
2017-08-05T17:30:44.820Z,24.00
2017-08-05T17:33:12.327Z,24.00
2017-08-05T17:35:39.847Z,23.80
2017-08-05T17:38:07.434Z,23.90
2017-08-05T17:40:34.939Z,24.10
2017-08-05T17:43:02.459Z,24.10
2017-08-05T17:45:30.250Z,24.20
2017-08-05T17:47:57.756Z,24.20
2017-08-05T17:50:25.260Z,24.10
2017-08-05T17:52:53.071Z,23.90
2017-08-05T17:55:20.600Z,23.80
2017-08-05T17:57:48.118Z,23.90
2017-08-05T18:00:15.933Z,23.70
2017-08-05T18:02:43.474Z,23.50
2017-08-05T18:05:10.987Z,23.30
2017-08-05T18:07:38.612Z,23.10
2017-08-05T18:10:06.120Z,22.80
2017-08-05T18:12:33.643Z,22.70
2017-08-05T18:15:01.684Z,22.50
2017-08-05T18:17:29.486Z,22.50
2017-08-05T18:19:57.175Z,22.40
2017-08-05T18:22:25.089Z,22.30
2017-08-05T18:24:52.855Z,22.20
2017-08-05T18:27:20.813Z,22.10
2017-08-05T18:29:48.682Z,22.00
2017-08-05T18:32:16.502Z,21.90
2017-08-05T18:34:44.361Z,21.90
2017-08-05T18:37:12.226Z,21.80
2017-08-05T18:39:39.731Z,21.70
2017-08-05T18:42:07.244Z,21.60
2017-08-05T18:44:34.831Z,21.40
2017-08-05T18:47:02.931Z,21.50
2017-08-05T18:49:31.057Z,21.30
2017-08-05T18:51:58.732Z,21.40
2017-08-05T18:54:26.962Z,21.30
2017-08-05T18:56:54.809Z,21.40
2017-08-05T18:59:22.527Z,21.30
2017-08-05T19:01:50.263Z,21.20
2017-08-05T19:04:17.834Z,21.10
2017-08-05T19:06:45.756Z,21.00
2017-08-05T19:09:13.311Z,21.00
2017-08-05T19:11:40.813Z,21.00
2017-08-05T19:14:08.376Z,20.90
2017-08-05T19:16:35.875Z,20.90
2017-08-05T19:19:03.383Z,20.90
2017-08-05T19:21:30.934Z,20.90
2017-08-05T19:23:58.439Z,20.80
2017-08-05T19:26:25.935Z,20.80
2017-08-05T19:28:53.491Z,20.80
2017-08-05T19:31:21.914Z,20.70
2017-08-05T19:33:49.423Z,20.70
2017-08-05T19:36:16.967Z,20.70
2017-08-05T19:38:44.475Z,20.60
2017-08-05T19:41:11.986Z,20.50
2017-08-05T19:43:39.543Z,20.50
2017-08-05T19:46:07.051Z,20.40
2017-08-05T19:48:34.552Z,20.30
2017-08-05T19:51:02.494Z,20.30
2017-08-05T19:53:29.995Z,20.30
2017-08-05T19:55:57.497Z,20.30
2017-08-05T19:58:25.047Z,20.30
2017-08-05T20:00:52.548Z,20.20
2017-08-05T20:03:20.048Z,20.20
2017-08-05T20:05:48.518Z,20.10
2017-08-05T20:08:16.015Z,20.10
2017-08-05T20:10:43.520Z,20.10
2017-08-05T20:13:11.161Z,20.10
2017-08-05T20:15:38.672Z,20.00
2017-08-05T20:18:06.178Z,20.00
2017-08-05T20:20:33.725Z,19.90
2017-08-05T20:23:01.243Z,19.90
2017-08-05T20:25:28.759Z,19.80
2017-08-05T20:27:56.308Z,19.80
2017-08-05T20:30:23.803Z,19.70
2017-08-05T20:32:51.320Z,19.60
2017-08-05T20:35:19.131Z,19.60
2017-08-05T20:37:46.632Z,19.60
2017-08-05T20:40:14.145Z,19.50
2017-08-05T20:42:41.701Z,19.40
2017-08-05T20:45:09.214Z,19.30
2017-08-05T20:47:36.715Z,19.10
2017-08-05T20:50:04.257Z,19.00
2017-08-05T20:52:31.915Z,18.90
2017-08-05T20:54:59.449Z,18.80
2017-08-05T20:57:27.227Z,18.70
2017-08-05T20:59:54.740Z,18.60
2017-08-05T21:02:22.328Z,18.60
2017-08-05T21:04:49.935Z,18.50
2017-08-05T21:07:17.432Z,18.60
2017-08-05T21:09:44.927Z,18.40
2017-08-05T21:12:12.714Z,18.30
2017-08-05T21:14:40.234Z,18.30
2017-08-05T21:17:08.127Z,18.20
2017-08-05T21:19:35.875Z,18.20
2017-08-05T21:22:03.404Z,18.30
2017-08-05T21:24:30.975Z,18.30
2017-08-05T21:26:58.870Z,18.30
2017-08-05T21:29:26.635Z,18.20
2017-08-05T21:31:54.163Z,18.20
2017-08-05T21:34:22.121Z,18.10
2017-08-05T21:36:49.855Z,18.10
2017-08-05T21:39:17.365Z,18.10
2017-08-05T21:41:45.063Z,18.10
2017-08-05T21:44:12.563Z,18.20
2017-08-05T21:46:40.068Z,18.20
2017-08-05T21:49:07.880Z,18.20
2017-08-05T21:51:35.403Z,18.20
2017-08-05T21:54:02.914Z,18.30
2017-08-05T21:56:30.701Z,18.30
2017-08-05T21:58:58.212Z,18.30
2017-08-05T22:01:25.716Z,18.20
2017-08-05T22:03:53.835Z,18.10
2017-08-05T22:06:21.340Z,18.00
2017-08-05T22:08:48.843Z,17.90
2017-08-05T22:11:16.469Z,17.80
2017-08-05T22:13:44.023Z,17.80
2017-08-05T22:16:11.535Z,17.80
2017-08-05T22:18:39.787Z,17.80
2017-08-05T22:21:07.295Z,17.70
2017-08-05T22:23:34.819Z,17.50
2017-08-05T22:26:02.628Z,17.50
2017-08-05T22:28:30.132Z,17.50
2017-08-05T22:30:57.653Z,17.40
2017-08-05T22:33:25.221Z,17.30
2017-08-05T22:35:52.733Z,17.20
2017-08-05T22:38:20.238Z,17.20
2017-08-05T22:40:48.055Z,17.10
2017-08-05T22:43:15.570Z,17.10
2017-08-05T22:45:43.068Z,17.10
2017-08-05T22:48:10.881Z,17.10
2017-08-05T22:50:38.406Z,17.10
2017-08-05T22:53:05.908Z,17.10
2017-08-05T22:55:33.459Z,17.10
2017-08-05T22:58:00.954Z,17.20
2017-08-05T23:00:28.462Z,17.20
2017-08-05T23:02:56.255Z,17.20
2017-08-05T23:05:23.759Z,17.10
2017-08-05T23:07:51.266Z,17.10
2017-08-05T23:10:18.831Z,17.10
2017-08-05T23:12:46.326Z,17.00
2017-08-05T23:15:13.824Z,17.00
2017-08-05T23:17:41.367Z,17.00
2017-08-05T23:20:08.867Z,16.90
2017-08-05T23:22:36.392Z,16.90
2017-08-05T23:25:04.171Z,16.90
2017-08-05T23:27:31.671Z,16.80
2017-08-05T23:29:59.171Z,16.80
2017-08-05T23:32:26.712Z,16.80
2017-08-05T23:34:54.210Z,16.80
2017-08-05T23:37:21.727Z,16.80
2017-08-05T23:39:49.542Z,16.90
2017-08-05T23:42:17.039Z,16.90
2017-08-05T23:44:44.555Z,17.00
2017-08-05T23:47:12.343Z,17.00
2017-08-05T23:49:39.858Z,17.00
2017-08-05T23:52:07.359Z,17.00
2017-08-05T23:54:34.911Z,16.90
2017-08-05T23:57:02.427Z,16.90
2017-08-05T23:59:29.955Z,16.90
